Time;durP1;ratioP1;P1;durP2;ratioP2;P2;SDS_P1;SDS_P2;PMS_P1;PMS_P2;Temp;Humidity;BMP_temperature;BMP_pressure;BME280_temperature;BME280_humidity;BME280_pressure;Samples;Min_cycle;Max_cycle;Signal;HPM_P1;HPM_P2
2021/03/12 00:02:24;;;;;;;53.23;33.93;;;;;;;3.90;93.49;98570.70;1789794;79;27224;-68
2021/03/12 00:04:50;;;;;;;57.97;35.50;;;;;;;3.94;93.27;98575.13;1778687;79;21093;-70
2021/03/12 00:07:16;;;;;;;62.20;34.50;;;;;;;3.91;93.26;98573.63;1790516;79;24548;-69
2021/03/12 00:09:42;;;;;;;58.23;33.27;;;;;;;3.95;93.40;98574.16;1785255;79;21006;-69
2021/03/12 00:12:09;;;;;;;55.12;33.55;;;;;;;4.02;93.08;98574.36;1790478;79;28746;-69
2021/03/12 00:14:34;;;;;;;55.85;35.00;;;;;;;4.05;92.83;98568.83;1781534;79;21200;-68
2021/03/12 00:17:00;;;;;;;68.00;35.73;;;;;;;4.04;92.86;98564.57;1783126;79;21191;-69
2021/03/12 00:19:26;;;;;;;60.13;36.67;;;;;;;4.07;92.84;98561.65;1787543;79;22609;-69
2021/03/12 00:21:52;;;;;;;63.17;36.20;;;;;;;4.02;92.94;98559.99;1788572;79;21736;-69
2021/03/12 00:24:18;;;;;;;53.53;34.63;;;;;;;3.99;92.90;98558.50;1785175;79;26888;-69
2021/03/12 00:26:43;;;;;;;53.03;33.77;;;;;;;4.06;93.40;98565.25;1772362;79;26228;-69
2021/03/12 00:29:09;;;;;;;55.70;34.03;;;;;;;4.12;92.70;98555.00;1779713;79;21386;-69
2021/03/12 00:31:35;;;;;;;57.10;34.57;;;;;;;4.15;92.29;98543.44;1782154;79;23602;-67
2021/03/12 00:34:00;;;;;;;56.33;35.23;;;;;;;4.21;92.05;98544.59;1776459;79;20958;-68
2021/03/12 00:36:26;;;;;;;61.08;34.53;;;;;;;4.22;91.74;98533.98;1762418;79;27163;-68
2021/03/12 00:38:52;;;;;;;52.62;33.30;;;;;;;4.23;91.55;98531.71;1783780;79;26461;-69
2021/03/12 00:41:18;;;;;;;55.47;33.00;;;;;;;4.25;91.40;98529.75;1784752;79;22649;-68
2021/03/12 00:43:44;;;;;;;51.83;33.80;;;;;;;4.24;91.30;98528.14;1774081;79;21198;-68
2021/03/12 00:46:10;;;;;;;56.80;35.13;;;;;;;4.25;91.16;98527.14;1769477;79;21689;-69
2021/03/12 00:48:36;;;;;;;67.42;34.90;;;;;;;4.27;91.21;98525.21;1777502;79;21190;-69
2021/03/12 00:51:03;;;;;;;56.77;35.00;;;;;;;4.24;91.17;98521.61;1767123;79;25743;-69
2021/03/12 00:53:29;;;;;;;55.52;35.48;;;;;;;4.23;91.32;98522.56;1780983;79;21204;-69
2021/03/12 00:55:55;;;;;;;56.97;34.03;;;;;;;4.22;91.33;98526.14;1775310;79;23660;-68
2021/03/12 00:58:22;;;;;;;55.60;34.80;;;;;;;4.20;91.53;98529.91;1774718;79;20978;-68
2021/03/12 01:00:47;;;;;;;63.60;34.60;;;;;;;4.23;91.61;98524.38;1778615;79;21534;-69
2021/03/12 01:03:13;;;;;;;56.23;33.98;;;;;;;4.29;91.33;98527.17;1777100;79;25903;-69
2021/03/12 01:05:39;;;;;;;57.43;35.00;;;;;;;4.34;91.25;98527.20;1781990;79;21382;-69
2021/03/12 01:08:05;;;;;;;57.00;35.13;;;;;;;4.19;91.80;98539.52;1773145;79;21248;-69
2021/03/12 01:10:31;;;;;;;60.40;34.50;;;;;;;4.17;91.91;98536.25;1770527;79;22233;-68
2021/03/12 01:12:57;;;;;;;57.40;33.55;;;;;;;4.15;92.13;98534.30;1773640;79;21209;-68
2021/03/12 01:15:25;;;;;;;55.97;35.90;;;;;;;4.16;92.17;98539.83;1774943;79;26223;-68
2021/03/12 01:17:51;;;;;;;60.12;36.10;;;;;;;4.11;92.47;98529.84;1770512;79;21777;-69
2021/03/12 01:20:24;;;;;;;64.23;35.97;;;;;;;4.11;92.49;98535.56;1772663;79;22586;-68
2021/03/12 01:22:50;;;;;;;61.73;35.88;;;;;;;4.10;92.44;98522.16;1780920;79;21651;-69
2021/03/12 01:25:21;;;;;;;58.38;36.08;;;;;;;4.21;92.29;98523.69;1781318;78;21216;-70
2021/03/12 01:27:47;;;;;;;57.53;35.92;;;;;;;4.26;92.01;98513.11;1779419;78;21205;-68
2021/03/12 01:30:27;;;;;;;56.10;34.73;;;;;;;4.24;91.97;98514.23;1772764;79;22309;-68
2021/03/12 01:32:53;;;;;;;55.78;35.03;;;;;;;4.22;92.13;98524.84;1757316;79;21479;-68
2021/03/12 01:35:18;;;;;;;55.97;35.33;;;;;;;4.17;92.59;98515.35;1725965;79;21845;-68
2021/03/12 01:37:44;;;;;;;59.95;35.88;;;;;;;4.27;92.87;98513.45;1755340;79;28488;-69
2021/03/12 01:40:13;;;;;;;64.10;34.58;;;;;;;4.26;93.03;98518.34;1757795;79;26708;-68
2021/03/12 01:42:39;;;;;;;53.98;33.65;;;;;;;4.34;92.98;98521.48;1752767;79;21380;-68
2021/03/12 01:45:11;;;;;;;58.10;35.60;;;;;;;4.39;92.98;98510.55;1758676;79;23521;-69
2021/03/12 01:47:37;;;;;;;55.67;34.85;;;;;;;4.38;92.94;98518.05;1756792;79;21654;-68
2021/03/12 01:50:04;;;;;;;63.40;35.83;;;;;;;4.43;93.10;98515.31;1758838;79;26780;-69
2021/03/12 01:52:31;;;;;;;58.58;33.88;;;;;;;4.41;93.38;98515.13;1754395;79;21197;-69
2021/03/12 01:54:57;;;;;;;51.40;32.47;;;;;;;4.41;93.94;98533.42;1768037;79;21714;-69
2021/03/12 01:57:23;;;;;;;53.33;33.50;;;;;;;4.38;94.27;98533.73;1763565;79;26061;-69
2021/03/12 01:59:49;;;;;;;52.00;33.30;;;;;;;4.42;94.28;98531.16;1758807;79;21803;-69
2021/03/12 02:02:14;;;;;;;53.95;33.45;;;;;;;4.46;94.18;98527.26;1753189;79;21189;-69
2021/03/12 02:04:41;;;;;;;55.08;32.93;;;;;;;4.42;94.43;98521.50;1759918;79;26788;-69
2021/03/12 02:07:06;;;;;;;53.45;32.73;;;;;;;4.38;94.82;98518.05;1756708;79;21409;-68
2021/03/12 02:09:32;;;;;;;52.80;32.97;;;;;;;4.44;94.78;98518.73;1756822;79;25027;-67
2021/03/12 02:12:06;;;;;;;50.77;31.13;;;;;;;4.52;94.41;98510.92;1747608;79;21879;-67
2021/03/12 02:14:50;;;;;;;49.42;31.85;;;;;;;4.46;94.69;98512.38;1763661;79;21161;-68
2021/03/12 02:17:20;;;;;;;51.13;32.20;;;;;;;4.46;94.81;98505.05;1760553;79;21158;-68
2021/03/12 02:19:58;;;;;;;47.40;30.45;;;;;;;4.41;95.26;98508.59;1753794;79;21545;-69
2021/03/12 02:22:23;;;;;;;50.17;31.80;;;;;;;4.52;94.86;98508.30;1757122;79;21260;-69
2021/03/12 02:25:09;;;;;;;51.90;31.93;;;;;;;4.42;95.33;98502.41;1757868;79;20970;-68
2021/03/12 02:27:35;;;;;;;48.10;30.52;;;;;;;4.48;95.09;98507.00;1751144;79;21208;-69
2021/03/12 02:30:02;;;;;;;47.98;31.23;;;;;;;4.51;94.83;98502.77;1776082;79;26115;-69
2021/03/12 02:32:37;;;;;;;49.93;31.27;;;;;;;4.55;94.76;98507.98;1783541;79;21275;-69
2021/03/12 02:35:19;;;;;;;49.33;30.48;;;;;;;4.49;95.05;98504.73;1755232;79;21249;-69
2021/03/12 02:37:45;;;;;;;50.10;31.27;;;;;;;4.51;95.22;98509.30;1779350;79;21191;-69
2021/03/12 02:40:11;;;;;;;50.10;31.23;;;;;;;4.55;95.02;98515.02;1784042;79;27624;-69
2021/03/12 02:42:38;;;;;;;48.10;30.17;;;;;;;4.55;95.19;98505.38;1767709;79;21682;-67
2021/03/12 02:45:05;;;;;;;49.90;31.60;;;;;;;4.55;95.28;98505.38;1781981;79;21514;-69
2021/03/12 02:47:31;;;;;;;47.98;29.42;;;;;;;4.46;95.75;98495.39;1790109;79;21229;-69
2021/03/12 02:49:57;;;;;;;45.50;28.90;;;;;;;4.47;95.92;98484.44;1785331;79;21081;-68
2021/03/12 02:52:22;;;;;;;46.33;28.77;;;;;;;4.54;95.59;98488.07;1783477;79;27442;-69
2021/03/12 02:54:48;;;;;;;48.13;30.60;;;;;;;4.54;95.56;98488.07;1781734;79;26063;-69
2021/03/12 02:57:17;;;;;;;48.43;30.93;;;;;;;4.62;95.66;98492.01;1784723;79;21181;-69
2021/03/12 02:59:42;;;;;;;45.28;28.83;;;;;;;4.59;95.52;98491.02;1786017;79;21189;-69
2021/03/12 03:02:09;;;;;;;47.00;29.23;;;;;;;4.73;95.31;98501.85;1785010;79;21573;-69
2021/03/12 03:04:38;;;;;;;49.40;30.80;;;;;;;4.66;95.15;98478.95;1787942;79;21180;-69
2021/03/12 03:07:08;;;;;;;45.48;29.02;;;;;;;4.52;95.88;98478.23;1787521;79;21145;-69
2021/03/12 03:09:35;;;;;;;46.33;30.08;;;;;;;4.57;95.62;98477.30;1758177;79;21668;-68
2021/03/12 03:12:01;;;;;;;48.42;30.45;;;;;;;4.50;96.04;98485.44;1785445;79;21539;-69
2021/03/12 03:14:29;;;;;;;45.23;29.07;;;;;;;4.45;96.25;98492.44;1789088;79;21866;-69
2021/03/12 03:16:54;;;;;;;;;;;;;;;4.46;96.36;98508.96;1790695;79;21616;-69
2021/03/12 03:19:20;;;;;;;45.78;28.62;;;;;;;4.42;96.54;98505.02;1787497;79;20207;-69
2021/03/12 03:21:46;;;;;;;43.77;28.20;;;;;;;4.38;96.64;98509.75;1784169;79;21556;-68
2021/03/12 03:24:12;;;;;;;44.90;29.13;;;;;;;4.39;96.69;98515.78;1788993;79;24577;-70
2021/03/12 03:26:38;;;;;;;50.93;29.10;;;;;;;4.39;96.73;98510.55;1780040;79;21811;-70
2021/03/12 03:29:04;;;;;;;43.65;28.27;;;;;;;4.41;96.72;98517.74;1786304;79;28244;-70
2021/03/12 03:31:29;;;;;;;43.17;28.07;;;;;;;4.42;96.71;98527.23;1755471;79;26233;-70
2021/03/12 03:33:55;;;;;;;45.73;28.73;;;;;;;4.41;96.86;98528.20;1756636;79;21381;-70
2021/03/12 03:36:21;;;;;;;47.80;29.67;;;;;;;4.39;96.87;98523.63;1751134;79;27448;-70
2021/03/12 03:38:47;;;;;;;41.50;26.83;;;;;;;4.43;96.91;98528.88;1752290;79;23774;-70
2021/03/12 03:41:15;;;;;;;39.95;26.45;;;;;;;4.39;96.94;98528.84;1762275;79;28375;-70
2021/03/12 03:43:47;;;;;;;43.78;25.92;;;;;;;4.45;96.70;98529.53;1759844;79;21208;-69
2021/03/12 03:46:13;;;;;;;41.53;25.97;;;;;;;4.51;96.30;98519.75;1756960;79;21209;-69
2021/03/12 03:48:39;;;;;;;43.80;27.13;;;;;;;4.47;96.32;98510.58;1759272;79;24066;-70
2021/03/12 03:51:11;;;;;;;39.10;26.30;;;;;;;4.50;96.29;98512.88;1747569;79;20962;-69
2021/03/12 03:53:37;;;;;;;42.70;27.17;;;;;;;4.54;96.10;98515.98;1756189;79;21244;-70
2021/03/12 03:56:03;;;;;;;41.65;26.73;;;;;;;4.50;96.23;98523.33;1732465;79;22321;-70
2021/03/12 03:58:30;;;;;;;37.83;26.15;;;;;;;4.46;96.43;98529.87;1756640;79;21658;-70
2021/03/12 04:00:56;;;;;;;42.38;27.20;;;;;;;4.48;96.31;98518.77;1753995;79;21574;-69
2021/03/12 04:03:22;;;;;;;39.27;26.15;;;;;;;4.49;96.45;98524.33;1758235;79;21277;-69
2021/03/12 04:05:48;;;;;;;37.58;24.95;;;;;;;4.57;96.08;98526.97;1759298;79;27586;-69
2021/03/12 04:08:14;;;;;;;36.48;24.63;;;;;;;4.49;96.20;98522.52;1753931;79;25645;-70
2021/03/12 04:10:39;;;;;;;38.10;24.17;;;;;;;4.67;95.80;98530.25;1756320;79;21412;-70
2021/03/12 04:13:05;;;;;;;37.33;25.07;;;;;;;4.67;95.28;98534.17;1756435;79;26450;-70
2021/03/12 04:15:31;;;;;;;37.77;24.00;;;;;;;4.79;95.14;98527.37;1760650;79;21515;-69
2021/03/12 04:17:57;;;;;;;34.27;22.15;;;;;;;4.84;94.55;98537.66;1754392;79;27576;-69
2021/03/12 04:20:23;;;;;;;36.83;24.20;;;;;;;4.90;94.33;98547.17;1749627;79;27000;-69
2021/03/12 04:22:49;;;;;;;36.03;23.70;;;;;;;4.89;94.09;98548.95;1749047;79;21692;-69
2021/03/12 04:25:15;;;;;;;36.33;24.05;;;;;;;4.89;93.97;98567.27;1772355;79;21158;-70
2021/03/12 04:27:41;;;;;;;35.98;23.83;;;;;;;4.89;94.08;98566.45;1758765;79;21205;-70
2021/03/12 04:30:08;;;;;;;35.15;23.02;;;;;;;4.92;93.98;98572.17;1745712;79;28377;-70
2021/03/12 04:32:38;;;;;;;36.60;24.07;;;;;;;4.92;94.11;98572.17;1791319;79;21187;-70
2021/03/12 04:35:06;;;;;;;38.20;24.18;;;;;;;4.91;94.27;98574.48;1789180;79;22278;-70
2021/03/12 04:37:33;;;;;;;34.23;22.60;;;;;;;4.92;94.17;98570.88;1790674;79;21221;-69
2021/03/12 04:39:58;;;;;;;37.30;22.95;;;;;;;4.82;94.58;98574.94;1791281;79;21216;-69
2021/03/12 04:42:24;;;;;;;38.65;23.42;;;;;;;4.90;94.64;98574.14;1788587;79;28394;-69
2021/03/12 04:44:50;;;;;;;37.13;22.82;;;;;;;4.91;94.46;98575.79;1794618;79;26813;-68
2021/03/12 04:47:16;;;;;;;37.23;23.00;;;;;;;4.90;94.49;98575.95;1791346;79;21393;-68
2021/03/12 04:49:44;;;;;;;37.20;24.03;;;;;;;4.89;94.62;98573.80;1785610;79;26000;-69
2021/03/12 04:52:11;;;;;;;34.00;21.60;;;;;;;4.90;94.58;98571.53;1792022;79;21213;-69
2021/03/12 04:54:37;;;;;;;33.92;22.52;;;;;;;4.84;94.68;98566.93;1786903;79;21550;-69
2021/03/12 04:57:04;;;;;;;35.38;22.45;;;;;;;4.87;94.78;98565.30;1790856;79;26833;-69
2021/03/12 04:59:29;;;;;;;31.82;21.90;;;;;;;4.89;94.53;98562.03;1787557;79;21422;-70
2021/03/12 05:01:55;;;;;;;32.83;21.40;;;;;;;4.98;94.20;98561.08;1790212;79;27484;-69
2021/03/12 05:04:21;;;;;;;35.97;21.80;;;;;;;5.03;93.79;98554.90;1792266;79;25145;-70
2021/03/12 05:06:47;;;;;;;31.50;21.60;;;;;;;5.07;93.64;98562.43;1793589;79;28208;-70
2021/03/12 05:09:13;;;;;;;35.52;22.50;;;;;;;5.14;93.33;98575.18;1793641;78;26711;-69
2021/03/12 05:11:43;;;;;;;36.58;21.65;;;;;;;5.02;93.52;98574.68;1791054;79;21240;-69
2021/03/12 05:14:11;;;;;;;34.50;21.97;;;;;;;5.00;93.66;98569.61;1795050;79;21637;-69
2021/03/12 05:16:37;;;;;;;33.60;21.77;;;;;;;4.93;94.02;98567.28;1796314;79;21227;-69
2021/03/12 05:19:03;;;;;;;37.13;22.73;;;;;;;5.04;93.93;98577.45;1798319;79;28335;-69
2021/03/12 05:21:29;;;;;;;35.50;22.22;;;;;;;5.07;93.86;98580.74;1789725;79;21224;-69
2021/03/12 05:23:55;;;;;;;31.57;20.47;;;;;;;4.96;94.12;98580.05;1792019;79;21103;-69
2021/03/12 05:26:21;;;;;;;34.43;21.27;;;;;;;5.05;93.76;98580.91;1796374;79;21678;-70
2021/03/12 05:28:46;;;;;;;34.27;21.77;;;;;;;5.09;93.64;98577.47;1794231;78;23796;-69
2021/03/12 05:31:12;;;;;;;32.55;21.10;;;;;;;5.19;93.59;98586.01;1772054;78;28458;-69
2021/03/12 05:33:38;;;;;;;33.80;20.37;;;;;;;5.30;93.16;98588.31;1757806;79;27650;-69
2021/03/12 05:36:04;;;;;;;32.35;20.90;;;;;;;5.38;92.79;98587.51;1762293;79;22145;-69
2021/03/12 05:38:30;;;;;;;32.73;20.05;;;;;;;5.49;92.27;98594.23;1753837;79;21249;-69
2021/03/12 05:40:56;;;;;;;29.90;19.77;;;;;;;5.48;91.90;98599.13;1758534;79;24460;-68
2021/03/12 05:43:22;;;;;;;34.55;20.70;;;;;;;5.55;91.51;98611.91;1756870;79;28464;-69
2021/03/12 05:45:47;;;;;;;31.85;20.08;;;;;;;5.47;91.28;98609.27;1766704;79;21205;-69
2021/03/12 05:48:14;;;;;;;32.20;19.23;;;;;;;5.47;91.35;98614.50;1755781;79;21652;-69
2021/03/12 05:50:40;;;;;;;30.25;18.17;;;;;;;5.51;91.05;98617.13;1704493;79;21244;-69
2021/03/12 05:53:05;;;;;;;30.23;18.23;;;;;;;5.34;91.24;98614.47;1763009;79;23983;-70
2021/03/12 05:55:31;;;;;;;29.85;17.82;;;;;;;5.33;91.01;98624.64;1751996;79;28417;-70
2021/03/12 05:57:59;;;;;;;27.07;16.85;;;;;;;5.31;90.75;98626.57;1757138;79;26698;-71
2021/03/12 06:00:25;;;;;;;;;;;;;;;5.32;90.30;98636.08;1756166;79;21923;-70
2021/03/12 06:02:51;;;;;;;27.20;16.73;;;;;;;5.31;90.20;98648.82;1712140;79;20691;-69
2021/03/12 06:05:16;;;;;;;28.73;16.90;;;;;;;5.17;90.30;98627.20;1757536;79;25750;-69
2021/03/12 06:07:42;;;;;;;27.35;16.05;;;;;;;5.25;90.26;98645.56;1748040;79;28946;-68
2021/03/12 06:10:09;;;;;;;26.75;15.70;;;;;;;5.26;90.40;98652.41;1756033;79;27767;-69
2021/03/12 06:12:36;;;;;;;25.35;15.98;;;;;;;5.31;90.20;98653.24;1759448;79;21168;-70
2021/03/12 06:15:04;;;;;;;24.92;15.03;;;;;;;5.30;90.72;98655.52;1758188;79;21194;-70
2021/03/12 06:17:45;;;;;;;28.67;16.55;;;;;;;5.28;91.23;98663.53;1757271;79;21213;-69
2021/03/12 06:20:19;;;;;;;27.05;15.53;;;;;;;5.27;92.07;98666.34;1751028;79;21210;-69
2021/03/12 06:22:56;;;;;;;26.15;14.87;;;;;;;5.32;92.63;98667.48;1746509;79;21212;-68
2021/03/12 06:25:25;;;;;;;;;;;;;;;5.35;93.15;98669.78;1753852;79;21451;-69
2021/03/12 06:27:56;;;;;;;24.50;14.53;;;;;;;5.31;94.01;98673.69;1754062;79;20239;-69
2021/03/12 06:30:24;;;;;;;30.45;14.85;;;;;;;5.36;94.37;98666.66;1759369;79;22300;-67
2021/03/12 06:32:53;;;;;;;24.98;14.45;;;;;;;5.47;94.31;98672.09;1791376;79;21251;-67
2021/03/12 06:35:28;;;;;;;24.87;14.00;;;;;;;5.48;94.75;98669.81;1794918;79;21216;-69
2021/03/12 06:37:54;;;;;;;24.52;14.45;;;;;;;5.53;94.71;98672.77;1794630;79;21200;-70
2021/03/12 06:40:25;;;;;;;22.85;15.20;;;;;;;5.49;95.21;98675.39;1799752;79;26188;-68
2021/03/12 06:43:20;;;;;;;25.50;15.53;;;;;;;5.50;95.34;98679.16;1797950;79;21216;-68
2021/03/12 06:46:01;;;;;;;26.52;15.45;;;;;;;5.57;95.34;98681.95;1795780;78;21164;-68
2021/03/12 06:48:34;;;;;;;26.33;16.40;;;;;;;5.62;95.55;98674.42;1797917;79;21157;-69
2021/03/12 06:51:11;;;;;;;27.98;16.35;;;;;;;5.66;95.92;98678.37;1796694;79;21245;-68
2021/03/12 06:53:40;;;;;;;29.05;16.65;;;;;;;5.80;95.66;98687.90;1797190;79;27113;-68
2021/03/12 06:56:08;;;;;;;30.27;17.73;;;;;;;5.80;95.82;98686.59;1794204;79;21716;-68
2021/03/12 06:58:34;;;;;;;29.05;18.15;;;;;;;5.90;95.58;98679.38;1790936;79;21157;-67
2021/03/12 07:01:01;;;;;;;29.07;17.37;;;;;;;5.97;95.62;98681.72;1798692;78;26722;-66
2021/03/12 07:03:29;;;;;;;28.10;16.67;;;;;;;6.03;95.00;98686.78;1799207;78;21591;-67
2021/03/12 07:06:04;;;;;;;27.52;17.07;;;;;;;5.97;95.33;98700.06;1794190;78;21239;-66
2021/03/12 07:08:36;;;;;;;30.40;16.82;;;;;;;6.04;95.12;98690.55;1797262;79;21082;-67
2021/03/12 07:11:23;;;;;;;31.48;17.50;;;;;;;6.09;94.97;98701.38;1797846;79;21420;-67
2021/03/12 07:13:54;;;;;;;;;;;;;;;6.03;95.27;98703.34;1799914;79;21223;-70
2021/03/12 07:16:21;;;;;;;26.33;17.05;;;;;;;6.00;95.29;98706.79;1796862;79;21392;-68
2021/03/12 07:18:47;;;;;;;34.83;19.07;;;;;;;6.03;95.63;98710.36;1791724;79;21201;-67
2021/03/12 07:21:15;;;;;;;29.23;17.85;;;;;;;6.00;95.96;98712.03;1796032;78;24615;-68
2021/03/12 07:23:44;;;;;;;28.95;17.82;;;;;;;5.99;96.09;98709.88;1791498;78;21163;-68
2021/03/12 07:26:15;;;;;;;27.52;17.07;;;;;;;6.06;95.75;98718.73;1793861;79;21228;-68
2021/03/12 07:28:42;;;;;;;34.90;18.60;;;;;;;6.07;95.56;98719.05;1789873;79;21606;-68
2021/03/12 07:31:11;;;;;;;32.53;18.02;;;;;;;5.98;96.34;98733.15;1783921;78;21280;-70
2021/03/12 07:33:36;;;;;;;30.02;18.62;;;;;;;6.08;96.37;98730.37;1782883;79;21193;-67
2021/03/12 07:36:04;;;;;;;26.97;16.87;;;;;;;6.06;96.39;98740.17;1790362;79;28340;-68
2021/03/12 07:38:35;;;;;;;26.05;16.57;;;;;;;6.05;96.46;98744.61;1790899;79;21157;-68
2021/03/12 07:41:04;;;;;;;29.87;17.75;;;;;;;5.98;96.76;98744.94;1782009;79;21197;-68
2021/03/12 07:43:35;;;;;;;26.55;17.65;;;;;;;6.09;96.86;98745.94;1785202;79;21594;-68
2021/03/12 07:46:03;;;;;;;26.70;16.57;;;;;;;6.09;96.71;98737.23;1781150;79;21248;-67
2021/03/12 07:48:30;;;;;;;27.05;16.80;;;;;;;6.02;96.83;98727.09;1784915;79;21142;-70
2021/03/12 07:51:11;;;;;;;24.35;15.32;;;;;;;6.15;96.70;98735.77;1784979;79;21217;-68
2021/03/12 07:53:52;;;;;;;24.90;15.80;;;;;;;6.17;96.63;98744.28;1780202;79;21619;-68
2021/03/12 07:56:39;;;;;;;29.15;16.77;;;;;;;6.11;96.86;98746.58;1779311;79;21634;-68
2021/03/12 07:59:05;;;;;;;26.75;16.42;;;;;;;5.96;97.74;98754.71;1792904;79;21097;-68
2021/03/12 08:01:53;;;;;;;25.82;14.83;;;;;;;5.95;98.20;98750.47;1791155;79;28455;-68
2021/03/12 08:04:34;;;;;;;22.77;13.90;;;;;;;5.81;98.91;98749.77;1787423;79;21196;-68
2021/03/12 08:07:18;;;;;;;23.07;14.58;;;;;;;5.81;98.89;98762.86;1781811;79;21224;-66
2021/03/12 08:09:47;;;;;;;22.37;13.95;;;;;;;5.80;99.31;98756.00;1792418;79;21205;-68
2021/03/12 08:12:32;;;;;;;23.12;14.30;;;;;;;5.73;99.45;98762.34;1789432;79;21635;-68
2021/03/12 08:15:22;;;;;;;21.95;13.35;;;;;;;5.79;99.82;98763.52;1783099;79;21182;-68
2021/03/12 08:18:02;;;;;;;26.57;14.07;;;;;;;5.63;100.00;98770.34;1789799;79;22894;-68
2021/03/12 08:20:30;;;;;;;22.93;13.28;;;;;;;5.65;100.00;98768.38;1783304;79;21340;-68
2021/03/12 08:22:59;;;;;;;19.85;12.98;;;;;;;5.86;99.77;98773.70;1781891;79;21720;-69
2021/03/12 08:25:47;;;;;;;22.40;13.70;;;;;;;5.93;98.86;98782.55;1784012;79;21587;-66
2021/03/12 08:28:21;;;;;;;23.27;13.13;;;;;;;6.05;98.96;98787.84;1781972;79;21772;-68
2021/03/12 08:30:50;;;;;;;20.50;11.93;;;;;;;5.96;98.79;98792.70;1783891;79;21586;-66
2021/03/12 08:33:29;;;;;;;21.05;12.45;;;;;;;6.03;98.23;98804.70;1775576;80;22266;-68
2021/03/12 08:35:56;;;;;;;21.73;13.25;;;;;;;5.98;98.40;98793.42;1781288;80;21201;-68
2021/03/12 08:38:28;;;;;;;21.35;12.93;;;;;;;6.06;98.21;98790.80;1781680;79;21197;-71
2021/03/12 08:41:08;;;;;;;20.92;13.45;;;;;;;6.06;98.71;98794.73;1778090;80;21196;-69
2021/03/12 08:43:34;;;;;;;21.62;12.80;;;;;;;6.16;98.22;98800.33;1775316;80;21267;-69
2021/03/12 08:46:06;;;;;;;20.75;13.10;;;;;;;6.24;98.08;98805.58;1776105;80;21689;-70
2021/03/12 08:48:54;;;;;;;19.05;12.65;;;;;;;6.26;97.83;98800.98;1777249;80;21220;-69
2021/03/12 08:51:22;;;;;;;21.48;12.40;;;;;;;6.34;97.10;98798.39;1661174;84;21223;-69
2021/03/12 08:53:57;;;;;;;20.00;12.35;;;;;;;6.55;96.32;98804.95;1659821;84;21551;-68
2021/03/12 08:56:27;;;;;;;21.00;12.07;;;;;;;6.52;95.97;98802.66;1661212;84;21172;-68
2021/03/12 08:58:53;;;;;;;19.42;11.43;;;;;;;6.47;95.51;98821.50;1660361;84;21354;-67
2021/03/12 09:01:25;;;;;;;22.10;12.43;;;;;;;6.48;95.11;98821.84;1661639;84;27068;-68
2021/03/12 09:03:54;;;;;;;21.10;11.73;;;;;;;6.53;95.66;98823.98;1662942;85;21243;-67
2021/03/12 09:06:25;;;;;;;23.20;12.13;;;;;;;6.56;95.43;98823.66;1661023;84;21227;-68
2021/03/12 09:08:50;;;;;;;19.57;11.73;;;;;;;6.62;95.16;98824.31;1659887;85;21239;-69
2021/03/12 09:11:19;;;;;;;16.82;10.80;;;;;;;6.61;94.66;98842.33;1660235;84;21990;-68
2021/03/12 09:13:45;;;;;;;20.37;10.70;;;;;;;6.70;94.30;98835.30;1660177;85;21686;-68
2021/03/12 09:16:23;;;;;;;17.60;10.98;;;;;;;6.70;93.49;98847.91;1665038;84;21234;-67
2021/03/12 09:18:50;;;;;;;17.48;10.40;;;;;;;6.79;93.50;98841.69;1636671;85;21187;-68
2021/03/12 09:21:21;;;;;;;21.00;10.70;;;;;;;6.90;93.68;98844.95;1663180;84;21740;-68
2021/03/12 09:23:49;;;;;;;19.30;10.60;;;;;;;6.92;93.66;98850.87;1662345;84;22727;-67
2021/03/12 09:26:23;;;;;;;21.90;10.28;;;;;;;6.85;92.92;98857.25;1661460;84;21155;-69
2021/03/12 09:28:51;;;;;;;18.55;10.20;;;;;;;6.91;93.18;98854.47;1659205;84;21228;-70
2021/03/12 09:31:20;;;;;;;14.13;8.85;;;;;;;6.97;92.65;98863.80;1664582;84;21275;-66
2021/03/12 09:33:50;;;;;;;16.37;8.95;;;;;;;6.92;90.54;98857.43;1662730;84;21263;-68
2021/03/12 09:39:20;;;;;;;18.55;8.90;;;;;;;6.89;90.10;98876.12;1656666;85;21469;-67
2021/03/12 09:42:04;;;;;;;16.32;8.15;;;;;;;6.95;90.31;98885.47;1657996;85;21232;-69
2021/03/12 09:44:30;;;;;;;13.65;8.00;;;;;;;6.89;89.25;98877.44;1661397;84;21252;-68
2021/03/12 09:46:58;;;;;;;15.10;7.50;;;;;;;6.92;89.51;98867.92;1666212;85;21336;-68
2021/03/12 09:49:34;;;;;;;14.53;7.58;;;;;;;7.05;89.30;98882.67;1656112;85;21910;-68
2021/03/12 09:52:06;;;;;;;13.78;7.67;;;;;;;7.03;88.82;98870.72;1658483;85;21328;-68
2021/03/12 09:54:32;;;;;;;15.43;8.03;;;;;;;7.04;89.33;98876.27;1661955;85;21736;-68
2021/03/12 09:56:58;;;;;;;15.50;7.20;;;;;;;7.04;89.64;98884.14;1658172;85;28465;-68
2021/03/12 09:59:26;;;;;;;12.58;6.95;;;;;;;6.98;89.68;98872.02;1652954;84;26872;-69
2021/03/12 10:01:52;;;;;;;12.28;6.90;;;;;;;6.93;89.61;98879.58;1662892;85;21795;-69
2021/03/12 10:04:36;;;;;;;10.58;6.97;;;;;;;6.89;90.22;98887.94;1666744;85;21234;-68
2021/03/12 10:07:06;;;;;;;12.75;7.33;;;;;;;6.83;91.25;98874.47;1662496;85;21245;-67
2021/03/12 10:09:37;;;;;;;15.95;8.00;;;;;;;6.86;92.04;98887.77;1668947;83;21258;-68
2021/03/12 10:12:04;;;;;;;16.52;8.50;;;;;;;6.77;92.96;98880.36;1657005;85;21292;-69
2021/03/12 10:14:36;;;;;;;13.88;8.35;;;;;;;6.77;93.36;98884.30;1661519;85;23856;-69
2021/03/12 10:17:19;;;;;;;16.15;8.60;;;;;;;6.82;93.45;98878.09;1658107;85;21292;-67
2021/03/12 10:19:59;;;;;;;15.43;8.40;;;;;;;6.88;93.69;98888.91;1661887;85;21230;-69
2021/03/12 10:22:41;;;;;;;13.98;8.28;;;;;;;6.88;93.33;98881.84;1659955;85;21275;-68
2021/03/12 10:25:25;;;;;;;14.68;8.90;;;;;;;6.83;92.81;98889.40;1661929;85;21197;-67
2021/03/12 10:28:02;;;;;;;13.15;8.25;;;;;;;6.74;92.75;98901.71;1665392;85;21239;-68
2021/03/12 10:30:45;;;;;;;13.35;8.10;;;;;;;6.76;92.77;98898.42;1662045;85;21257;-69
2021/03/12 10:33:20;;;;;;;13.43;7.97;;;;;;;6.80;92.56;98895.78;1664322;85;21171;-67
2021/03/12 10:35:55;;;;;;;12.00;6.17;;;;;;;6.73;92.43;98922.86;1661092;85;21262;-67
2021/03/12 10:38:25;;;;;;;6.40;3.33;;;;;;;6.52;93.50;98984.93;1663351;84;21220;-67
2021/03/12 10:40:56;;;;;;;5.47;2.60;;;;;;;6.04;93.34;98968.33;1668042;85;21940;-67
2021/03/12 10:43:29;;;;;;;4.30;2.00;;;;;;;5.69;93.07;98956.98;1670513;85;21282;-68
2021/03/12 10:46:05;;;;;;;4.42;2.40;;;;;;;5.49;94.49;98968.64;1668580;85;21643;-68
2021/03/12 10:48:39;;;;;;;5.67;2.55;;;;;;;5.39;95.59;98968.23;1665090;85;21272;-69
2021/03/12 10:51:05;;;;;;;8.15;2.72;;;;;;;5.16;97.02;98963.16;1667325;85;21150;-68
2021/03/12 10:53:53;;;;;;;7.00;2.80;;;;;;;5.01;97.84;98981.97;1657315;85;21277;-70
2021/03/12 10:56:19;;;;;;;7.62;3.20;;;;;;;4.98;97.09;98969.19;1669689;85;21263;-67
2021/03/12 10:58:52;;;;;;;5.42;3.08;;;;;;;4.91;96.69;98952.93;1658402;85;23769;-67
2021/03/12 11:01:29;;;;;;;7.95;3.50;;;;;;;4.97;97.31;98949.25;1660406;84;21328;-67
2021/03/12 11:03:58;;;;;;;7.25;3.47;;;;;;;5.03;97.80;98940.80;1656611;85;21254;-67
2021/03/12 11:06:41;;;;;;;9.65;4.00;;;;;;;5.09;98.26;98944.59;1665666;85;21182;-68
2021/03/12 11:09:09;;;;;;;7.17;3.30;;;;;;;5.09;98.43;98943.78;1659484;84;22172;-68
2021/03/12 11:11:38;;;;;;;7.87;3.55;;;;;;;5.18;98.58;98935.02;1657126;85;21264;-68
2021/03/12 11:14:09;;;;;;;9.50;3.85;;;;;;;5.28;98.17;98938.36;1658427;85;21195;-71
2021/03/12 11:16:35;;;;;;;7.95;3.77;;;;;;;5.54;98.40;98934.95;1660243;85;21257;-69
2021/03/12 11:19:03;;;;;;;10.03;4.22;;;;;;;5.45;97.92;98941.11;1668774;85;21261;-68
2021/03/12 11:21:46;;;;;;;7.75;4.00;;;;;;;5.54;97.75;98937.56;1658346;85;21277;-68
2021/03/12 11:24:12;;;;;;;9.73;4.20;;;;;;;5.60;97.76;98936.95;1656169;85;21226;-67
2021/03/12 11:26:42;;;;;;;8.03;4.65;;;;;;;5.69;98.60;98954.36;1661201;85;21258;-67
2021/03/12 11:29:11;;;;;;;10.03;5.00;;;;;;;5.90;98.34;98937.44;1674923;85;21602;-68
2021/03/12 11:31:40;;;;;;;10.80;5.10;;;;;;;6.13;97.95;98955.28;1674512;85;21233;-67
2021/03/12 11:34:08;;;;;;;;;;;;;;;6.24;97.09;98962.86;1654727;85;21269;-68
2021/03/12 11:36:34;;;;;;;11.73;5.20;;;;;;;6.26;95.70;98955.65;1665357;85;20337;-67
2021/03/12 11:39:06;;;;;;;14.03;6.10;;;;;;;6.43;95.50;98941.64;1664001;85;21258;-69
2021/03/12 11:41:32;;;;;;;12.03;6.25;;;;;;;6.55;96.22;98951.83;1664899;85;21490;-67
2021/03/12 11:44:07;;;;;;;10.95;5.60;;;;;;;6.74;95.84;98948.94;1669489;85;21705;-68